sensor_id;sensor_type;location;lat;lon;timestamp;pressure;altitude;pressure_sealevel;temperature;humidity
61474;BME280;53694;49.784;30.150;2023-04-23T13:03:51;99608.22;;;20.97;26.60
61474;BME280;53694;49.784;30.150;2023-04-23T13:04:52;99625.02;;;20.78;26.13
61474;BME280;53694;49.784;30.150;2023-04-23T13:05:54;99610.05;;;20.68;26.12
61474;BME280;53694;49.784;30.150;2023-04-23T13:06:56;99614.51;;;20.65;26.61
61474;BME280;53694;49.784;30.150;2023-04-23T13:07:57;99608.22;;;20.61;26.55
61474;BME280;53694;49.784;30.150;2023-04-23T13:08:59;99608.72;;;20.56;26.75
61474;BME280;53694;49.784;30.150;2023-04-23T13:10:01;99608.72;;;20.56;26.75
61474;BME280;53694;49.784;30.150;2023-04-23T13:11:02;99607.91;;;20.56;26.82
61474;BME280;53694;49.784;30.150;2023-04-23T13:12:06;99612.70;;;20.55;26.60
61474;BME280;53694;49.784;30.150;2023-04-23T13:13:07;99612.70;;;20.55;26.60
61474;BME280;53694;49.784;30.150;2023-04-23T13:14:11;99609.98;;;20.52;26.72
61474;BME280;53694;49.784;30.150;2023-04-23T13:15:12;99609.64;;;20.50;26.86
61474;BME280;53694;49.784;30.150;2023-04-23T13:16:16;99611.69;;;20.45;26.57
61474;BME280;53694;49.784;30.150;2023-04-23T13:17:20;99608.25;;;20.38;27.54
61474;BME280;53694;49.784;30.150;2023-04-23T13:18:21;99611.09;;;20.34;26.67
61474;BME280;53694;49.784;30.150;2023-04-23T13:19:23;99606.74;;;20.33;26.55
61474;BME280;53694;49.784;30.150;2023-04-23T13:20:25;99610.25;;;20.37;27.15
61474;BME280;53694;49.784;30.150;2023-04-23T13:21:27;99611.75;;;20.42;28.07
61474;BME280;53694;49.784;30.150;2023-04-23T13:22:29;99606.11;;;20.45;27.62
61474;BME280;53694;49.784;30.150;2023-04-23T13:23:31;99610.12;;;20.44;27.32
61474;BME280;53694;49.784;30.150;2023-04-23T13:24:32;99605.39;;;20.41;27.65
61474;BME280;53694;49.784;30.150;2023-04-23T13:25:36;99613.04;;;20.37;27.76
61474;BME280;53694;49.784;30.150;2023-04-23T13:26:37;99608.31;;;20.34;27.72
61474;BME280;53694;49.784;30.150;2023-04-23T13:27:39;99601.95;;;20.34;28.16
61474;BME280;53694;49.784;30.150;2023-04-23T13:28:41;99610.25;;;20.37;28.33
61474;BME280;53694;49.784;30.150;2023-04-23T13:29:43;99606.23;;;20.38;28.09
61474;BME280;53694;49.784;30.150;2023-04-23T13:30:47;99603.04;;;20.40;27.96
61474;BME280;53694;49.784;30.150;2023-04-23T13:31:48;99603.82;;;20.40;27.95
61474;BME280;53694;49.784;30.150;2023-04-23T13:32:50;99612.19;;;20.40;27.67
61474;BME280;53694;49.784;30.150;2023-04-23T13:33:52;99607.83;;;20.39;28.07
61474;BME280;53694;49.784;30.150;2023-04-23T13:34:54;99604.67;;;20.37;27.81
61474;BME280;53694;49.784;30.150;2023-04-23T13:36:02;99602.32;;;20.36;27.81
61474;BME280;53694;49.784;30.150;2023-04-23T13:37:01;99604.67;;;20.37;28.26
61474;BME280;53694;49.784;30.150;2023-04-23T13:38:03;99608.62;;;20.40;27.67
61474;BME280;53694;49.784;30.150;2023-04-23T13:39:05;99602.66;;;20.38;27.73
61474;BME280;53694;49.784;30.150;2023-04-23T13:40:08;99601.95;;;20.34;28.24
61474;BME280;53694;49.784;30.150;2023-04-23T13:41:09;99605.61;;;20.31;27.04
61474;BME280;53694;49.784;30.150;2023-04-23T13:42:11;99600.16;;;20.23;26.95
61474;BME280;53694;49.784;30.150;2023-04-23T13:43:13;99610.53;;;20.23;27.74
61474;BME280;53694;49.784;30.150;2023-04-23T13:44:14;99601.30;;;20.26;28.17
61474;BME280;53694;49.784;30.150;2023-04-23T13:45:16;99604.02;;;20.30;28.01
61474;BME280;53694;49.784;30.150;2023-04-23T13:46:18;99600.38;;;20.33;27.98
61474;BME280;53694;49.784;30.150;2023-04-23T13:47:19;99599.53;;;20.36;27.63
61474;BME280;53694;49.784;30.150;2023-04-23T13:48:22;99601.54;;;20.35;27.58
61474;BME280;53694;49.784;30.150;2023-04-23T13:49:26;99602.39;;;20.32;27.97
61474;BME280;53694;49.784;30.150;2023-04-23T13:50:28;99603.17;;;20.33;28.62
61474;BME280;53694;49.784;30.150;2023-04-23T13:51:29;99602.39;;;20.32;28.08
61474;BME280;53694;49.784;30.150;2023-04-23T13:52:32;99600.82;;;20.31;27.33
61474;BME280;53694;49.784;30.150;2023-04-23T13:53:33;99600.82;;;20.31;27.43
61474;BME280;53694;49.784;30.150;2023-04-23T13:54:35;99598.88;;;20.28;28.44
61474;BME280;53694;49.784;30.150;2023-04-23T13:55:37;99608.41;;;20.31;28.63
61474;BME280;53694;49.784;30.150;2023-04-23T13:56:39;99607.12;;;20.35;29.31
61474;BME280;53694;49.784;30.150;2023-04-23T13:57:40;99603.04;;;20.40;29.04
61474;BME280;53694;49.784;30.150;2023-04-23T13:58:42;99611.69;;;20.45;28.45
61474;BME280;53694;49.784;30.150;2023-04-23T13:59:44;99607.67;;;20.46;28.45
61474;BME280;53694;49.784;30.150;2023-04-23T14:00:45;99612.06;;;20.47;28.94
61474;BME280;53694;49.784;30.150;2023-04-23T14:01:47;99607.20;;;20.52;29.11
61474;BME280;53694;49.784;30.150;2023-04-23T14:02:49;99605.84;;;20.60;28.27
61474;BME280;53694;49.784;30.150;2023-04-23T14:03:50;99604.20;;;20.62;27.80
61474;BME280;53694;49.784;30.150;2023-04-23T14:04:52;99602.19;;;20.63;27.47
61474;BME280;53694;49.784;30.150;2023-04-23T14:05:53;99602.56;;;20.65;27.73
61474;BME280;53694;49.784;30.150;2023-04-23T14:06:55;99608.48;;;20.67;27.92
61474;BME280;53694;49.784;30.150;2023-04-23T14:07:56;99606.34;;;20.75;28.12
61474;BME280;53694;49.784;30.150;2023-04-23T14:08:58;99601.33;;;20.86;28.35
61474;BME280;53694;49.784;30.150;2023-04-23T14:10:00;99602.72;;;20.94;27.44
61474;BME280;53694;49.784;30.150;2023-04-23T14:11:02;99598.99;;;21.01;27.56
61474;BME280;53694;49.784;30.150;2023-04-23T14:12:13;99605.28;;;21.05;27.44
61474;BME280;53694;49.784;30.150;2023-04-23T14:13:15;99598.47;;;21.06;28.24
61474;BME280;53694;49.784;30.150;2023-04-23T14:14:17;99606.33;;;21.11;27.62
61474;BME280;53694;49.784;30.150;2023-04-23T14:15:18;99599.89;;;21.14;27.15
61474;BME280;53694;49.784;30.150;2023-04-23T14:16:20;99606.70;;;21.13;27.95
61474;BME280;53694;49.784;30.150;2023-04-23T14:17:22;99598.84;;;21.08;27.41
61474;BME280;53694;49.784;30.150;2023-04-23T14:18:24;99599.25;;;21.06;28.27
61474;BME280;53694;49.784;30.150;2023-04-23T14:19:25;99604.31;;;20.95;27.92
61474;BME280;53694;49.784;30.150;2023-04-23T14:20:30;99588.16;;;20.86;28.28
61474;BME280;53694;49.784;30.150;2023-04-23T14:21:32;99600.52;;;20.85;28.48
61474;BME280;53694;49.784;30.150;2023-04-23T14:22:33;99594.94;;;20.85;27.94
61474;BME280;53694;49.784;30.150;2023-04-23T14:24:50;99598.23;;;20.80;28.51
61474;BME280;53694;49.784;30.150;2023-04-23T14:26:02;99593.95;;;20.76;28.47
61474;BME280;53694;49.784;30.150;2023-04-23T14:27:01;99595.96;;;20.75;27.99
61474;BME280;53694;49.784;30.150;2023-04-23T14:28:15;99594.73;;;20.76;28.94
61474;BME280;53694;49.784;30.150;2023-04-23T14:29:17;99593.09;;;20.79;28.53
61474;BME280;53694;49.784;30.150;2023-04-23T14:30:16;99591.95;;;20.76;28.13
61474;BME280;53694;49.784;30.150;2023-04-23T14:31:19;99591.41;;;20.65;27.89
61474;BME280;53694;49.784;30.150;2023-04-23T14:32:20;99593.11;;;20.59;28.14
61474;BME280;53694;49.784;30.150;2023-04-23T14:33:22;99591.75;;;20.67;28.22
61474;BME280;53694;49.784;30.150;2023-04-23T14:34:25;99579.86;;;20.83;28.42
61474;BME280;53694;49.784;30.150;2023-04-23T14:35:27;99585.11;;;20.97;27.30
61474;BME280;53694;49.784;30.150;2023-04-23T14:36:29;99585.48;;;20.99;27.70
61474;BME280;53694;49.784;30.150;2023-04-23T14:37:31;99578.93;;;21.06;27.24
61474;BME280;53694;49.784;30.150;2023-04-23T14:38:32;99588.30;;;21.15;27.26
61474;BME280;53694;49.784;30.150;2023-04-23T14:39:34;99592.92;;;21.22;27.63
61474;BME280;53694;49.784;30.150;2023-04-23T14:40:36;99585.61;;;21.28;27.01
61474;BME280;53694;49.784;30.150;2023-04-23T14:41:37;99586.31;;;21.32;27.79
61474;BME280;53694;49.784;30.150;2023-04-23T14:42:39;99586.15;;;21.39;28.51
61474;BME280;53694;49.784;30.150;2023-04-23T14:43:40;99582.21;;;21.53;28.47
61474;BME280;53694;49.784;30.150;2023-04-23T14:44:42;99579.00;;;21.71;27.74
61474;BME280;53694;49.784;30.150;2023-04-23T14:45:43;99574.95;;;21.88;27.10
61474;BME280;53694;49.784;30.150;2023-04-23T14:46:47;99584.09;;;22.05;28.03
61474;BME280;53694;49.784;30.150;2023-04-23T14:47:48;99581.61;;;22.24;26.99
61474;BME280;53694;49.784;30.150;2023-04-23T14:48:50;99577.29;;;22.35;25.80
61474;BME280;53694;49.784;30.150;2023-04-23T14:49:52;99578.62;;;22.31;25.60
61474;BME280;53694;49.784;30.150;2023-04-23T14:50:54;99581.25;;;22.21;25.50
61474;BME280;53694;49.784;30.150;2023-04-23T14:51:55;99572.45;;;22.07;26.39
61474;BME280;53694;49.784;30.150;2023-04-23T14:52:57;99577.89;;;21.98;26.71
61474;BME280;53694;49.784;30.150;2023-04-23T14:53:58;99578.31;;;21.96;26.93
61474;BME280;53694;49.784;30.150;2023-04-23T14:55:00;99581.80;;;22.00;28.21
61474;BME280;53694;49.784;30.150;2023-04-23T14:56:02;99578.31;;;22.12;28.31
61474;BME280;53694;49.784;30.150;2023-04-23T14:57:03;99579.50;;;22.28;27.59
61474;BME280;53694;49.784;30.150;2023-04-23T14:58:05;99580.81;;;22.52;28.29
61474;BME280;53694;49.784;30.150;2023-04-23T14:59:06;99573.66;;;22.77;26.64
61474;BME280;53694;49.784;30.150;2023-04-23T15:00:09;99576.52;;;23.02;25.88
61474;BME280;53694;49.784;30.150;2023-04-23T15:01:11;99580.66;;;23.23;26.61
61474;BME280;53694;49.784;30.150;2023-04-23T15:02:13;99583.23;;;23.43;25.79
61474;BME280;53694;49.784;30.150;2023-04-23T15:03:15;99582.90;;;23.54;24.83
61474;BME280;53694;49.784;30.150;2023-04-23T15:04:16;99577.17;;;23.44;24.71
61474;BME280;53694;49.784;30.150;2023-04-23T15:05:18;99581.56;;;23.45;24.97
61474;BME280;53694;49.784;30.150;2023-04-23T15:06:20;99574.61;;;23.50;24.20
61474;BME280;53694;49.784;30.150;2023-04-23T15:07:21;99571.66;;;23.79;23.60
61474;BME280;53694;49.784;30.150;2023-04-23T15:08:23;99571.66;;;23.79;23.60
61474;BME280;53694;49.784;30.150;2023-04-23T15:09:24;99570.69;;;23.95;22.51
61474;BME280;53694;49.784;30.150;2023-04-23T15:10:26;99571.05;;;24.19;22.30
61474;BME280;53694;49.784;30.150;2023-04-23T15:11:27;99571.42;;;24.43;22.45
61474;BME280;53694;49.784;30.150;2023-04-23T15:12:41;99562.68;;;24.72;22.84
61474;BME280;53694;49.784;30.150;2023-04-23T15:14:01;99565.50;;;25.03;23.09
61474;BME280;53694;49.784;30.150;2023-04-23T15:15:03;99573.61;;;25.32;21.80
61474;BME280;53694;49.784;30.150;2023-04-23T15:17:23;99572.84;;;25.41;20.46
61474;BME280;53694;49.784;30.150;2023-04-23T15:18:25;99570.18;;;25.37;20.52
61474;BME280;53694;49.784;30.150;2023-04-23T15:19:27;99573.27;;;25.30;20.52
61474;BME280;53694;49.784;30.150;2023-04-23T15:20:29;99571.08;;;25.25;20.92
61474;BME280;53694;49.784;30.150;2023-04-23T15:21:31;99578.56;;;25.19;20.52
61474;BME280;53694;49.784;30.150;2023-04-23T15:22:32;99570.57;;;25.17;20.33
61474;BME280;53694;49.784;30.150;2023-04-23T15:23:34;99564.17;;;25.17;20.27
61474;BME280;53694;49.784;30.150;2023-04-23T15:24:35;99561.06;;;25.15;20.36
61474;BME280;53694;49.784;30.150;2023-04-23T15:25:37;99563.33;;;25.07;20.32
61474;BME280;53694;49.784;30.150;2023-04-23T15:26:39;99562.22;;;25.05;20.86
61474;BME280;53694;49.784;30.150;2023-04-23T15:27:41;99553.89;;;24.92;19.76
61474;BME280;53694;49.784;30.150;2023-04-23T15:28:43;99553.89;;;24.92;19.76
61474;BME280;53694;49.784;30.150;2023-04-23T15:29:45;99556.53;;;24.86;20.33
61474;BME280;53694;49.784;30.150;2023-04-23T15:30:46;99561.50;;;24.82;20.45
61474;BME280;53694;49.784;30.150;2023-04-23T15:31:48;99564.45;;;24.79;20.84
61474;BME280;53694;49.784;30.150;2023-04-23T15:32:49;99557.71;;;24.76;20.11
61474;BME280;53694;49.784;30.150;2023-04-23T15:33:51;99553.64;;;24.68;21.20
61474;BME280;53694;49.784;30.150;2023-04-23T15:34:53;99558.09;;;24.56;21.04
61474;BME280;53694;49.784;30.150;2023-04-23T15:35:55;99558.81;;;24.48;22.21
61474;BME280;53694;49.784;30.150;2023-04-23T15:36:57;99562.53;;;24.44;21.65
61474;BME280;53694;49.784;30.150;2023-04-23T15:37:58;99559.72;;;24.44;21.17
61474;BME280;53694;49.784;30.150;2023-04-23T15:39:00;99561.75;;;24.44;21.02
61474;BME280;53694;49.784;30.150;2023-04-23T15:40:02;99564.00;;;24.36;21.39
61474;BME280;53694;49.784;30.150;2023-04-23T15:41:04;99558.80;;;24.26;21.17
61474;BME280;53694;49.784;30.150;2023-04-23T15:42:06;99559.83;;;24.19;21.19
61474;BME280;53694;49.784;30.150;2023-04-23T15:43:11;99558.39;;;24.14;22.27
61474;BME280;53694;49.784;30.150;2023-04-23T15:44:13;99558.39;;;24.14;22.27
61474;BME280;53694;49.784;30.150;2023-04-23T15:45:14;99561.66;;;24.13;22.04
61474;BME280;53694;49.784;30.150;2023-04-23T15:46:16;99561.91;;;24.06;21.87
61474;BME280;53694;49.784;30.150;2023-04-23T15:47:18;99560.66;;;24.07;22.20
61474;BME280;53694;49.784;30.150;2023-04-23T15:48:20;99564.13;;;24.11;22.38
61474;BME280;53694;49.784;30.150;2023-04-23T15:49:21;99561.01;;;24.09;21.62
61474;BME280;53694;49.784;30.150;2023-04-23T15:50:23;99564.06;;;24.02;21.88
61474;BME280;53694;49.784;30.150;2023-04-23T15:51:25;99561.50;;;23.94;21.63
61474;BME280;53694;49.784;30.150;2023-04-23T15:52:26;99556.59;;;23.86;22.18
61474;BME280;53694;49.784;30.150;2023-04-23T15:53:28;99560.09;;;23.77;22.31
61474;BME280;53694;49.784;30.150;2023-04-23T15:54:36;99559.90;;;23.72;22.78
61474;BME280;53694;49.784;30.150;2023-04-23T15:55:35;99560.91;;;23.65;23.72
61474;BME280;53694;49.784;30.150;2023-04-23T15:56:37;99557.41;;;23.61;23.19
61474;BME280;53694;49.784;30.150;2023-04-23T15:57:38;99550.16;;;23.51;23.31
61474;BME280;53694;49.784;30.150;2023-04-23T15:58:40;99556.89;;;23.40;23.50
61474;BME280;53694;49.784;30.150;2023-04-23T15:59:42;99559.27;;;23.29;23.05
61474;BME280;53694;49.784;30.150;2023-04-23T16:00:43;99556.02;;;23.18;23.57
61474;BME280;53694;49.784;30.150;2023-04-23T16:01:45;99557.59;;;23.06;23.53
61474;BME280;53694;49.784;30.150;2023-04-23T16:02:47;99556.70;;;22.97;23.50
61474;BME280;53694;49.784;30.150;2023-04-23T16:03:48;99556.88;;;22.89;23.45
61474;BME280;53694;49.784;30.150;2023-04-23T16:04:50;99553.08;;;22.83;23.43
61474;BME280;53694;49.784;30.150;2023-04-23T16:05:51;99558.56;;;22.74;23.59
61474;BME280;53694;49.784;30.150;2023-04-23T16:06:53;99558.45;;;22.65;23.67
61474;BME280;53694;49.784;30.150;2023-04-23T16:07:54;99551.91;;;22.55;23.53
61474;BME280;53694;49.784;30.150;2023-04-23T16:08:56;99554.94;;;22.48;23.42
61474;BME280;53694;49.784;30.150;2023-04-23T16:09:58;99550.78;;;22.40;23.71
61474;BME280;53694;49.784;30.150;2023-04-23T16:11:00;99544.27;;;22.30;23.89
61474;BME280;53694;49.784;30.150;2023-04-23T16:12:01;99546.91;;;22.21;24.07
61474;BME280;53694;49.784;30.150;2023-04-23T16:13:03;99557.59;;;22.10;24.33
61474;BME280;53694;49.784;30.150;2023-04-23T16:14:05;99549.58;;;21.95;24.10
61474;BME280;53694;49.784;30.150;2023-04-23T16:15:08;99557.48;;;21.84;24.63
61474;BME280;53694;49.784;30.150;2023-04-23T16:16:10;99554.95;;;21.74;24.52
61474;BME280;53694;49.784;30.150;2023-04-23T16:17:11;99555.09;;;21.54;24.85
61474;BME280;53694;49.784;30.150;2023-04-23T16:18:13;99555.09;;;21.54;24.85
61474;BME280;53694;49.784;30.150;2023-04-23T16:19:14;99562.48;;;21.44;25.08
61474;BME280;53694;49.784;30.150;2023-04-23T16:20:16;99554.72;;;21.35;25.27
61474;BME280;53694;49.784;30.150;2023-04-23T16:21:17;99558.55;;;21.25;25.31
61474;BME280;53694;49.784;30.150;2023-04-23T16:22:19;99557.14;;;21.17;25.76
61474;BME280;53694;49.784;30.150;2023-04-23T16:23:20;99555.37;;;21.07;25.80
61474;BME280;53694;49.784;30.150;2023-04-23T16:24:22;99549.27;;;20.95;26.20
61474;BME280;53694;49.784;30.150;2023-04-23T16:25:23;99553.88;;;20.86;26.17
61474;BME280;53694;49.784;30.150;2023-04-23T16:26:26;99554.81;;;20.79;26.44
61474;BME280;53694;49.784;30.150;2023-04-23T16:27:28;99559.42;;;20.69;26.47
61474;BME280;53694;49.784;30.150;2023-04-23T16:28:30;99557.21;;;20.61;26.84
61474;BME280;53694;49.784;30.150;2023-04-23T16:29:31;99552.55;;;20.54;27.59
61474;BME280;53694;49.784;30.150;2023-04-23T16:30:33;99557.91;;;20.45;27.16
61474;BME280;53694;49.784;30.150;2023-04-23T16:31:35;99559.70;;;20.35;27.83
61474;BME280;53694;49.784;30.150;2023-04-23T16:32:36;99560.47;;;20.16;27.84
61474;BME280;53694;49.784;30.150;2023-04-23T16:33:38;99560.47;;;20.16;27.84
61474;BME280;53694;49.784;30.150;2023-04-23T16:34:39;99559.04;;;20.08;27.87
61474;BME280;53694;49.784;30.150;2023-04-23T16:35:41;99550.45;;;19.98;28.17
61474;BME280;53694;49.784;30.150;2023-04-23T16:36:42;99545.45;;;19.90;28.39
61474;BME280;53694;49.784;30.150;2023-04-23T16:37:44;99557.50;;;19.83;28.27
61474;BME280;53694;49.784;30.150;2023-04-23T16:38:46;99555.81;;;19.66;28.21
61474;BME280;53694;49.784;30.150;2023-04-23T16:39:47;99555.81;;;19.66;28.21
61474;BME280;53694;49.784;30.150;2023-04-23T16:40:49;99545.98;;;19.58;28.96
61474;BME280;53694;49.784;30.150;2023-04-23T16:41:50;99551.26;;;19.52;29.48
61474;BME280;53694;49.784;30.150;2023-04-23T16:42:52;99554.53;;;19.47;28.82
61474;BME280;53694;49.784;30.150;2023-04-23T16:43:53;99547.86;;;19.41;28.95
61474;BME280;53694;49.784;30.150;2023-04-23T16:44:55;99555.12;;;19.35;29.01
61474;BME280;53694;49.784;30.150;2023-04-23T16:45:57;99550.83;;;19.30;29.34
61474;BME280;53694;49.784;30.150;2023-04-23T16:46:58;99552.50;;;19.24;29.71
61474;BME280;53694;49.784;30.150;2023-04-23T16:48:00;99548.63;;;19.18;29.94
61474;BME280;53694;49.784;30.150;2023-04-23T16:49:02;99547.12;;;19.13;29.73
61474;BME280;53694;49.784;30.150;2023-04-23T16:50:04;99558.35;;;19.06;29.75
61474;BME280;53694;49.784;30.150;2023-04-23T16:51:06;99552.91;;;18.99;30.00
61474;BME280;53694;49.784;30.150;2023-04-23T16:52:07;99553.00;;;18.92;29.94
61474;BME280;53694;49.784;30.150;2023-04-23T16:53:09;99557.09;;;18.84;30.43
61474;BME280;53694;49.784;30.150;2023-04-23T16:54:10;99554.05;;;18.75;30.75
61474;BME280;53694;49.784;30.150;2023-04-23T16:55:12;99555.75;;;18.65;30.54
61474;BME280;53694;49.784;30.150;2023-04-23T16:56:14;99548.70;;;18.57;31.13
61474;BME280;53694;49.784;30.150;2023-04-23T16:57:16;99557.95;;;18.46;30.72
61474;BME280;53694;49.784;30.150;2023-04-23T16:58:18;99556.89;;;18.37;31.56
61474;BME280;53694;49.784;30.150;2023-04-23T16:59:20;99556.97;;;18.30;31.58
61474;BME280;53694;49.784;30.150;2023-04-23T17:00:22;99557.86;;;18.23;31.34
61474;BME280;53694;49.784;30.150;2023-04-23T17:01:24;99561.06;;;18.18;31.89
61474;BME280;53694;49.784;30.150;2023-04-23T17:02:25;99558.39;;;18.11;31.87
61474;BME280;53694;49.784;30.150;2023-04-23T17:03:27;99562.02;;;18.04;32.11
61474;BME280;53694;49.784;30.150;2023-04-23T17:04:28;99555.74;;;17.96;32.34
61474;BME280;53694;49.784;30.150;2023-04-23T17:05:31;99555.84;;;17.89;32.09
61474;BME280;53694;49.784;30.150;2023-04-23T17:06:34;99557.86;;;17.85;32.29
61474;BME280;53694;49.784;30.150;2023-04-23T17:07:36;99555.53;;;17.80;33.17
61474;BME280;53694;49.784;30.150;2023-04-23T17:08:38;99561.13;;;17.77;33.96
61474;BME280;53694;49.784;30.150;2023-04-23T17:09:40;99557.56;;;17.72;33.28
61474;BME280;53694;49.784;30.150;2023-04-23T17:10:41;99558.41;;;17.66;33.54
61474;BME280;53694;49.784;30.150;2023-04-23T17:11:43;99576.72;;;17.60;33.59
61474;BME280;53694;49.784;30.150;2023-04-23T17:12:44;99568.02;;;17.54;33.50
61474;BME280;53694;49.784;30.150;2023-04-23T17:13:46;99567.31;;;17.46;34.40
61474;BME280;53694;49.784;30.150;2023-04-23T17:14:48;99568.55;;;17.42;33.65
61474;BME280;53694;49.784;30.150;2023-04-23T17:15:49;99565.02;;;17.38;34.20
61474;BME280;53694;49.784;30.150;2023-04-23T17:16:51;99570.58;;;17.34;34.38
61474;BME280;53694;49.784;30.150;2023-04-23T17:17:52;99571.39;;;17.31;35.20
61474;BME280;53694;49.784;30.150;2023-04-23T17:18:54;99567.06;;;17.27;34.78
61474;BME280;53694;49.784;30.150;2023-04-23T17:19:56;99571.48;;;17.20;34.14
61474;BME280;53694;49.784;30.150;2023-04-23T17:20:57;99577.86;;;17.14;35.31
61474;BME280;53694;49.784;30.150;2023-04-23T17:21:59;99567.20;;;17.09;34.52
61474;BME280;53694;49.784;30.150;2023-04-23T17:23:01;99573.58;;;17.02;34.20
61474;BME280;53694;49.784;30.150;2023-04-23T17:24:03;99568.88;;;16.95;34.24
61474;BME280;53694;49.784;30.150;2023-04-23T17:25:06;99576.45;;;16.88;34.98
61474;BME280;53694;49.784;30.150;2023-04-23T17:26:08;99578.86;;;16.82;35.35
61474;BME280;53694;49.784;30.150;2023-04-23T17:27:09;99584.42;;;16.79;35.33
61474;BME280;53694;49.784;30.150;2023-04-23T17:28:11;99582.45;;;16.76;35.39
61474;BME280;53694;49.784;30.150;2023-04-23T17:29:13;99574.12;;;16.72;35.58
61474;BME280;53694;49.784;30.150;2023-04-23T17:30:15;99577.70;;;16.72;36.07
61474;BME280;53694;49.784;30.150;2023-04-23T17:31:17;99568.57;;;16.72;35.33
61474;BME280;53694;49.784;30.150;2023-04-23T17:32:18;99576.52;;;16.70;35.59
61474;BME280;53694;49.784;30.150;2023-04-23T17:33:21;99574.91;;;16.69;35.06
61474;BME280;53694;49.784;30.150;2023-04-23T17:34:22;99583.65;;;16.67;34.82
61474;BME280;53694;49.784;30.150;2023-04-23T17:35:24;99580.09;;;16.67;35.43
61474;BME280;53694;49.784;30.150;2023-04-23T17:36:26;99582.46;;;16.65;36.31
61474;BME280;53694;49.784;30.150;2023-04-23T17:37:27;99580.52;;;16.62;35.97
61474;BME280;53694;49.784;30.150;2023-04-23T17:38:29;99578.55;;;16.59;36.01
61474;BME280;53694;49.784;30.150;2023-04-23T17:39:31;99588.44;;;16.56;35.92
61474;BME280;53694;49.784;30.150;2023-04-23T17:40:33;99585.30;;;16.54;36.16
61474;BME280;53694;49.784;30.150;2023-04-23T17:41:34;99589.28;;;16.49;35.42
61474;BME280;53694;49.784;30.150;2023-04-23T17:42:36;99582.55;;;16.43;36.07
61474;BME280;53694;49.784;30.150;2023-04-23T17:43:38;99590.09;;;16.39;35.52
61474;BME280;53694;49.784;30.150;2023-04-23T17:44:39;99587.36;;;16.32;37.08
61474;BME280;53694;49.784;30.150;2023-04-23T17:45:41;99591.72;;;16.26;35.72
61474;BME280;53694;49.784;30.150;2023-04-23T17:46:42;99585.81;;;16.17;35.83
61474;BME280;53694;49.784;30.150;2023-04-23T17:47:44;99593.34;;;16.13;36.57
61474;BME280;53694;49.784;30.150;2023-04-23T17:48:46;99595.74;;;16.11;37.09
61474;BME280;53694;49.784;30.150;2023-04-23T17:49:47;99592.56;;;16.09;36.74
61474;BME280;53694;49.784;30.150;2023-04-23T17:50:49;99590.98;;;16.08;36.26
61474;BME280;53694;49.784;30.150;2023-04-23T17:51:51;99593.76;;;16.08;36.69
61474;BME280;53694;49.784;30.150;2023-04-23T17:52:52;99595.74;;;16.07;36.46
61474;BME280;53694;49.784;30.150;2023-04-23T17:53:54;99593.38;;;16.06;36.53
61474;BME280;53694;49.784;30.150;2023-04-23T17:54:56;99594.55;;;16.05;36.15
61474;BME280;53694;49.784;30.150;2023-04-23T17:55:58;99595.75;;;16.04;36.04
61474;BME280;53694;49.784;30.150;2023-04-23T17:56:59;99597.73;;;16.03;36.21
61474;BME280;53694;49.784;30.150;2023-04-23T17:58:01;99602.48;;;16.03;36.16
61474;BME280;53694;49.784;30.150;2023-04-23T17:59:03;99603.68;;;16.02;36.44
61474;BME280;53694;49.784;30.150;2023-04-23T18:00:06;99600.50;;;15.99;36.61
61474;BME280;53694;49.784;30.150;2023-04-23T18:01:07;99598.93;;;15.95;37.36
61474;BME280;53694;49.784;30.150;2023-04-23T18:02:09;99596.16;;;15.91;36.75
61474;BME280;53694;49.784;30.150;2023-04-23T18:03:11;99594.18;;;15.88;36.86
61474;BME280;53694;49.784;30.150;2023-04-23T18:04:12;99600.91;;;15.84;36.32
61474;BME280;53694;49.784;30.150;2023-04-23T18:05:15;99598.17;;;15.80;37.37
61474;BME280;53694;49.784;30.150;2023-04-23T18:06:17;99602.92;;;15.76;38.25
61474;BME280;53694;49.784;30.150;2023-04-23T18:07:19;99598.95;;;15.70;37.23
61474;BME280;53694;49.784;30.150;2023-04-23T18:08:20;99604.48;;;15.66;37.55
61474;BME280;53694;49.784;30.150;2023-04-23T18:09:24;99593.83;;;15.65;38.10
61474;BME280;53694;49.784;30.150;2023-04-23T18:10:25;99609.98;;;15.63;38.89
61474;BME280;53694;49.784;30.150;2023-04-23T18:11:27;99602.50;;;15.60;38.05
61474;BME280;53694;49.784;30.150;2023-04-23T18:12:29;99608.82;;;15.57;38.51
61474;BME280;53694;49.784;30.150;2023-04-23T18:13:31;99609.22;;;15.55;41.14
61474;BME280;53694;49.784;30.150;2023-04-23T18:14:33;99608.81;;;15.53;40.73
61474;BME280;53694;49.784;30.150;2023-04-23T18:15:34;99609.20;;;15.44;39.83
61474;BME280;53694;49.784;30.150;2023-04-23T18:16:36;99609.20;;;15.44;39.83
61474;BME280;53694;49.784;30.150;2023-04-23T18:17:38;99605.27;;;15.38;38.83
61474;BME280;53694;49.784;30.150;2023-04-23T18:18:39;99606.45;;;15.34;39.22
61474;BME280;53694;49.784;30.150;2023-04-23T18:19:41;99611.56;;;15.28;40.14
61474;BME280;53694;49.784;30.150;2023-04-23T18:20:43;99606.83;;;15.25;40.07
61474;BME280;53694;49.784;30.150;2023-04-23T18:21:44;99599.69;;;15.20;40.80
61474;BME280;53694;49.784;30.150;2023-04-23T18:22:46;99600.87;;;15.16;41.42
61474;BME280;53694;49.784;30.150;2023-04-23T18:23:48;99608.38;;;15.12;42.09
61474;BME280;53694;49.784;30.150;2023-04-23T18:24:49;99605.20;;;15.06;42.04
61474;BME280;53694;49.784;30.150;2023-04-23T18:25:51;99602.83;;;15.01;41.88
61474;BME280;53694;49.784;30.150;2023-04-23T18:26:52;99604.80;;;14.97;42.05
61474;BME280;53694;49.784;30.150;2023-04-23T18:27:54;99600.44;;;14.92;42.30
61474;BME280;53694;49.784;30.150;2023-04-23T18:28:55;99609.88;;;14.81;42.71
61474;BME280;53694;49.784;30.150;2023-04-23T18:29:57;99609.88;;;14.81;42.71